Time;durP1;ratioP1;P1;durP2;ratioP2;P2;SDS_P1;SDS_P2;PMS_P1;PMS_P2;Temp;Humidity;BMP_temperature;BMP_pressure;BME280_temperature;BME280_humidity;BME280_pressure;Samples;Min_cycle;Max_cycle;Signal;HPM_P1;HPM_P2
2023/07/07 00:10:21;;;;;;;4.80;3.03;;;14.80;1.00;;;;;;19807853;29;20050;-96
2023/07/07 00:21:05;;;;;;;6.50;3.25;;;14.60;1.00;;;;;;19718370;29;20058;-94
2023/07/07 00:31:37;;;;;;;5.30;3.50;;;14.50;1.00;;;;;;19729459;29;20162;-93
2023/07/07 00:42:47;;;;;;;6.78;3.45;;;14.50;1.00;;;;;;19704228;29;20043;-95
2023/07/07 00:53:08;;;;;;;5.35;3.47;;;14.30;1.00;;;;;;19662500;29;20727;-95
2023/07/07 01:04:16;;;;;;;7.65;4.18;;;14.20;1.00;;;;;;19796747;29;20059;-96
2023/07/07 03:25:03;;;;;;;13.38;9.77;;;13.40;38.90;;;;;;19855158;29;20047;-94
2023/07/07 03:36:02;;;;;;;14.63;9.43;;;13.40;38.90;;;;;;19827470;29;20046;-94
2023/07/07 03:46:54;;;;;;;;;;;;;;;;;;;;;
2023/07/07 03:57:52;;;;;;;14.98;10.10;;;13.50;55.80;;;;;;19837564;29;20042;-93
2023/07/07 04:08:22;;;;;;;10.90;8.73;;;13.60;53.40;;;;;;19814699;29;20643;-93
2023/07/07 04:19:23;;;;;;;13.73;9.65;;;13.70;47.40;;;;;;19821951;29;20050;-94
2023/07/07 04:41:50;;;;;;;12.23;9.05;;;13.90;29.30;;;;;;19796074;29;20063;-95
2023/07/07 04:52:25;;;;;;;11.38;7.68;;;14.30;1.00;;;;;;19749896;29;21363;-94
2023/07/07 05:03:04;;;;;;;12.27;7.35;;;14.80;1.00;;;;;;19793112;29;20046;-94
2023/07/07 05:13:48;;;;;;;10.02;7.22;;;15.20;1.00;;;;;;19823053;29;20638;-93
2023/07/07 05:24:12;;;;;;;11.63;7.57;;;15.50;1.00;;;;;;19770510;29;20132;-94
2023/07/07 05:34:55;;;;;;;7.63;6.45;;;15.90;1.00;;;;;;19802646;29;20042;-93
2023/07/07 05:45:36;;;;;;;10.95;7.15;;;16.30;1.00;;;;;;19823370;29;20050;-94
2023/07/07 06:08:09;;;;;;;;;;;;;;;;;;;;;
2023/07/07 06:30:29;;;;;;;;;;;;;;;;;;;;;
2023/07/07 06:52:06;;;;;;;8.05;3.60;;;19.10;1.00;;;;;;19794304;29;20117;-94
2023/07/07 07:03:20;;;;;;;6.63;3.80;;;19.60;1.00;;;;;;19755895;29;20035;-93
2023/07/07 07:13:53;;;;;;;7.38;3.63;;;20.00;1.00;;;;;;19787871;29;20043;-95
2023/07/07 07:24:58;;;;;;;7.20;2.90;;;20.50;1.00;;;;;;19758792;29;20436;-94
2023/07/07 07:35:49;;;;;;;6.57;3.00;;;20.70;1.00;;;;;;19806089;29;20047;-94
2023/07/07 07:46:39;;;;;;;6.18;2.58;;;20.80;1.00;;;;;;19819589;29;20073;-91
2023/07/07 08:08:28;;;;;;;5.15;2.90;;;21.60;1.00;;;;;;19816471;29;20053;-95
2023/07/07 08:18:50;;;;;;;6.60;2.50;;;22.00;1.00;;;;;;19811249;29;20051;-94
2023/07/07 09:03:06;;;;;;;5.05;1.98;;;23.30;1.00;;;;;;19961183;29;20085;-95
2023/07/07 09:14:05;;;;;;;4.22;1.83;;;23.70;1.00;;;;;;19890838;29;20057;-91
2023/07/07 09:25:00;;;;;;;3.58;1.70;;;23.90;1.00;;;;;;19894917;29;20054;-96
2023/07/07 09:36:11;;;;;;;3.30;1.52;;;24.40;1.00;;;;;;19895101;29;20050;-96
2023/07/07 09:47:39;;;;;;;;;;;;;;;;;;;;;
2023/07/07 09:58:57;;;;;;;;;;;;;;;;;;;;;
2023/07/07 10:10:37;;;;;;;3.53;1.73;;;25.30;1.00;;;;;;19540832;30;20060;-95
2023/07/07 10:22:02;;;;;;;;;;;;;;;;;;;;;
2023/07/07 10:55:57;;;;;;;4.65;1.90;;;26.40;1.00;;;;;;19324981;30;20061;-96
2023/07/07 11:07:14;;;;;;;;;;;;;;;;;;;;;
2023/07/07 11:18:27;;;;;;;3.55;1.73;;;26.90;1.00;;;;;;19788707;29;21091;-95
2023/07/07 11:29:27;;;;;;;4.55;2.05;;;27.40;1.00;;;;;;19781051;29;20043;-96
2023/07/07 11:52:03;;;;;;;;;;;;;;;;;;;;;
2023/07/07 18:55:18;;;;;;;3.53;2.00;;;26.30;1.00;;;;;;17310366;24;20067;-47
2023/07/07 19:05:40;;;;;;;4.60;2.30;;;26.00;1.00;;;;;;19862719;29;20354;-46
2023/07/07 19:15:48;;;;;;;3.63;1.98;;;25.80;1.00;;;;;;19834848;24;20175;-84
2023/07/07 19:26:30;;;;;;;3.33;2.30;;;25.50;1.00;;;;;;19749336;29;20058;-83
2023/07/07 19:36:51;;;;;;;5.18;2.17;;;25.20;1.00;;;;;;19744873;29;20039;-82
2023/07/07 19:47:13;;;;;;;4.10;2.28;;;24.80;1.00;;;;;;19748299;29;20055;-82
2023/07/07 19:57:36;;;;;;;3.95;2.15;;;24.40;1.00;;;;;;19762960;29;20385;-81
2023/07/07 20:07:57;;;;;;;4.05;2.25;;;24.20;1.00;;;;;;19756559;29;20040;-82
2023/07/07 20:18:19;;;;;;;5.30;2.80;;;23.90;1.00;;;;;;19748654;29;20074;-82
2023/07/07 20:28:40;;;;;;;5.43;2.35;;;23.60;1.00;;;;;;19762244;29;20046;-85
2023/07/07 20:39:02;;;;;;;4.53;2.55;;;23.20;1.00;;;;;;19763670;29;20051;-86
2023/07/07 20:49:23;;;;;;;4.72;2.58;;;23.00;1.00;;;;;;19765330;29;20047;-84
2023/07/07 20:59:45;;;;;;;3.75;2.58;;;22.90;1.00;;;;;;19754551;29;20594;-84
2023/07/07 21:10:28;;;;;;;4.47;2.30;;;22.60;1.00;;;;;;19757636;30;20052;-84
2023/07/07 21:20:50;;;;;;;5.22;2.53;;;22.40;1.00;;;;;;19741921;29;20555;-84
2023/07/07 21:31:13;;;;;;;5.38;2.90;;;22.20;1.00;;;;;;19748783;29;20415;-85
2023/07/07 21:41:35;;;;;;;4.25;2.30;;;22.00;1.00;;;;;;19752304;29;20074;-81
2023/07/07 21:52:00;;;;;;;3.80;2.60;;;21.80;1.00;;;;;;19737022;29;20070;-81
2023/07/07 22:02:21;;;;;;;4.22;2.90;;;21.60;1.00;;;;;;19755838;29;20126;-81
2023/07/07 22:12:44;;;;;;;4.68;2.55;;;21.50;1.00;;;;;;19729790;29;20634;-81
2023/07/07 22:23:10;;;;;;;3.95;2.50;;;21.30;1.00;;;;;;19748788;29;20079;-82
2023/07/07 22:33:32;;;;;;;4.53;2.65;;;21.40;1.00;;;;;;19742586;29;20055;-81
2023/07/07 22:43:55;;;;;;;5.55;2.90;;;21.30;1.00;;;;;;19728157;29;20092;-80
2023/07/07 22:54:17;;;;;;;4.95;2.75;;;21.30;1.00;;;;;;19749804;29;20047;-79
2023/07/07 23:04:39;;;;;;;4.55;2.88;;;21.30;1.00;;;;;;19746210;29;20058;-76
2023/07/07 23:15:01;;;;;;;4.50;2.80;;;21.20;1.00;;;;;;19751387;29;20054;-79
2023/07/07 23:25:25;;;;;;;4.22;2.75;;;21.10;1.00;;;;;;19751007;29;20047;-78
2023/07/07 23:35:54;;;;;;;4.82;2.50;;;21.00;1.00;;;;;;19749668;29;20071;-78
2023/07/07 23:46:16;;;;;;;4.97;2.53;;;20.90;1.00;;;;;;19755135;29;20063;-78
2023/07/07 23:56:38;;;;;;;3.78;2.63;;;20.90;1.00;;;;;;19741028;29;20085;-77
